createdAt,value
2022-09-10T03:00:19.798Z,1.80
2022-09-10T03:02:47.957Z,2.10
2022-09-10T03:05:16.147Z,2.17
2022-09-10T03:07:44.781Z,2.20
2022-09-10T03:10:12.715Z,1.83
2022-09-10T03:12:41.907Z,2.08
2022-09-10T03:15:10.970Z,2.00
2022-09-10T03:17:40.126Z,2.03
2022-09-10T03:20:09.066Z,1.95
2022-09-10T03:22:38.107Z,2.05
2022-09-10T03:25:07.920Z,1.80
2022-09-10T03:27:36.577Z,2.08
2022-09-10T03:30:08.945Z,2.10
2022-09-10T03:32:37.206Z,2.10
2022-09-10T03:35:10.042Z,2.13
2022-09-10T03:37:39.161Z,2.10
2022-09-10T03:40:08.791Z,2.30
2022-09-10T03:42:38.039Z,2.20
2022-09-10T03:45:06.823Z,2.10
2022-09-10T03:47:36.950Z,2.28
2022-09-10T03:50:05.263Z,2.50
2022-09-10T03:52:35.669Z,2.67
2022-09-10T03:55:03.859Z,2.50
2022-09-10T03:57:31.705Z,2.55
2022-09-10T04:00:00.057Z,2.42
2022-09-10T04:02:27.947Z,2.50
2022-09-10T04:04:55.821Z,2.55
2022-09-10T04:07:23.643Z,2.60
2022-09-10T04:09:53.128Z,2.47
2022-09-10T04:12:20.972Z,2.40
2022-09-10T04:14:48.986Z,2.75
2022-09-10T04:17:17.983Z,2.50
2022-09-10T04:19:46.261Z,2.50
2022-09-10T04:22:14.118Z,2.70
2022-09-10T04:24:42.437Z,2.55
2022-09-10T04:27:11.579Z,2.50
2022-09-10T04:29:39.425Z,2.90
2022-09-10T04:32:07.390Z,3.10
2022-09-10T04:34:36.224Z,2.80
2022-09-10T04:37:04.130Z,2.70
2022-09-10T04:39:35.002Z,2.70
2022-09-10T04:42:03.055Z,2.90
2022-09-10T04:44:32.715Z,2.58
2022-09-10T04:47:00.617Z,2.60
2022-09-10T04:49:28.998Z,3.00
2022-09-10T04:51:56.831Z,3.00
2022-09-10T04:54:26.243Z,2.50
2022-09-10T04:56:54.142Z,2.83
2022-09-10T04:59:22.193Z,2.97
2022-09-10T05:01:52.046Z,3.20
2022-09-10T05:04:19.967Z,3.10
2022-09-10T05:06:50.219Z,3.20
2022-09-10T05:09:18.267Z,2.90
2022-09-10T05:11:47.236Z,2.75
2022-09-10T05:14:15.345Z,3.20
2022-09-10T05:16:44.510Z,2.90
2022-09-10T05:19:17.822Z,3.17
2022-09-10T05:22:00.274Z,3.30
2022-09-10T05:24:28.338Z,2.97
2022-09-10T05:26:56.882Z,3.35
2022-09-10T05:29:24.711Z,3.45
2022-09-10T05:31:52.641Z,3.63
2022-09-10T05:34:21.817Z,3.45
2022-09-10T05:36:52.015Z,3.90
2022-09-10T05:39:20.416Z,3.67
2022-09-10T05:41:48.625Z,3.95
2022-09-10T05:44:17.489Z,3.60
2022-09-10T05:46:45.659Z,3.60
2022-09-10T05:49:16.662Z,4.00
2022-09-10T05:51:45.844Z,4.22
2022-09-10T05:54:13.695Z,4.40
2022-09-10T05:56:42.141Z,3.75
2022-09-10T05:59:11.071Z,3.47
2022-09-10T06:01:41.438Z,3.50
2022-09-10T06:04:11.287Z,3.80
2022-09-10T06:06:39.380Z,3.80
2022-09-10T06:09:11.357Z,3.80
2022-09-10T06:11:55.005Z,3.60
2022-09-10T06:14:24.686Z,3.58
2022-09-10T06:16:54.605Z,3.78
2022-09-10T06:19:23.074Z,4.07
2022-09-10T06:21:52.304Z,4.32
2022-09-10T06:24:22.474Z,4.57
2022-09-10T06:26:52.712Z,4.28
2022-09-10T06:29:20.672Z,4.20
2022-09-10T06:31:49.292Z,3.88
2022-09-10T06:34:19.066Z,4.38
2022-09-10T06:36:49.291Z,3.80
2022-09-10T06:39:17.950Z,4.15
2022-09-10T06:41:53.598Z,4.00
2022-09-10T06:44:50.274Z,3.42
2022-09-10T06:50:37.499Z,3.33
2022-09-10T06:53:05.362Z,3.45
2022-09-10T06:55:36.123Z,3.63
2022-09-10T06:58:05.602Z,3.45
2022-09-10T07:00:34.755Z,3.40
2022-09-10T07:03:03.058Z,3.50
2022-09-10T07:05:33.640Z,3.20
2022-09-10T07:08:02.883Z,3.42
2022-09-10T07:10:32.206Z,3.38
2022-09-10T07:13:01.058Z,3.08
2022-09-10T07:15:30.848Z,3.08
2022-09-10T07:17:59.564Z,3.15
2022-09-10T07:20:29.342Z,3.10
2022-09-10T07:22:58.664Z,2.72
2022-09-10T07:25:30.962Z,2.50
2022-09-10T07:28:05.755Z,2.40
2022-09-10T07:30:37.821Z,2.50
2022-09-10T07:33:05.762Z,2.22
2022-09-10T07:35:36.127Z,2.45
2022-09-10T07:38:04.891Z,2.40
2022-09-10T07:40:36.766Z,2.38
2022-09-10T07:43:04.601Z,2.30
2022-09-10T07:45:32.540Z,2.30
2022-09-10T07:48:04.930Z,2.30
2022-09-10T07:50:38.409Z,2.10
2022-09-10T07:53:06.586Z,2.08
2022-09-10T07:55:35.846Z,2.40
2022-09-10T07:58:03.836Z,2.28
2022-09-10T08:00:33.201Z,2.00
2022-09-10T08:03:07.867Z,2.13
2022-09-10T08:05:37.944Z,1.85
2022-09-10T08:08:05.864Z,2.00
2022-09-10T08:10:33.834Z,1.92
2022-09-10T08:13:03.916Z,2.10
2022-09-10T08:15:31.869Z,2.13
2022-09-10T08:18:02.242Z,1.80
2022-09-10T08:20:33.211Z,1.90
2022-09-10T08:23:03.284Z,2.00
2022-09-10T08:25:31.142Z,1.90
2022-09-10T08:27:58.978Z,1.90
2022-09-10T08:30:27.632Z,1.80
2022-09-10T08:32:56.228Z,1.70
2022-09-10T08:35:24.239Z,1.73
2022-09-10T08:37:53.446Z,1.67
2022-09-10T08:40:23.620Z,1.60
2022-09-10T08:42:53.051Z,1.90
2022-09-10T08:45:24.858Z,1.63
2022-09-10T08:47:59.537Z,1.85
2022-09-10T08:50:38.539Z,2.08
2022-09-10T08:53:25.799Z,1.80
2022-09-10T08:55:57.659Z,1.70
2022-09-10T08:58:31.663Z,1.67
2022-09-10T09:01:04.791Z,1.80
2022-09-10T09:03:41.075Z,1.63
2022-09-10T09:06:24.972Z,1.67
2022-09-10T09:08:54.944Z,1.85
2022-09-10T09:11:40.767Z,1.80
2022-09-10T09:14:33.424Z,1.85
2022-09-10T09:17:22.116Z,1.70
2022-09-10T09:20:02.736Z,1.92
2022-09-10T09:22:40.101Z,1.98
2022-09-10T09:25:24.028Z,1.63
2022-09-10T09:27:56.142Z,1.67
2022-09-10T09:30:31.941Z,1.77
2022-09-10T09:33:05.515Z,1.77
2022-09-10T09:35:37.006Z,1.60
2022-09-10T09:38:18.992Z,1.60
2022-09-10T09:40:51.129Z,2.00
2022-09-10T09:43:33.661Z,1.52
2022-09-10T09:46:03.258Z,1.52
2022-09-10T09:48:40.036Z,1.60
2022-09-10T09:51:11.794Z,1.60
2022-09-10T09:53:42.293Z,1.48
2022-09-10T09:56:22.336Z,1.73
2022-09-10T09:58:51.249Z,1.50
2022-09-10T10:01:24.623Z,1.73
2022-09-10T10:03:58.448Z,1.60
2022-09-10T10:06:29.034Z,1.67
2022-09-10T10:08:59.880Z,1.60
2022-09-10T10:11:51.023Z,1.30
2022-09-10T10:14:25.347Z,1.27
2022-09-10T10:16:59.938Z,1.10
2022-09-10T10:19:34.896Z,0.85
2022-09-10T10:22:24.866Z,1.20
2022-09-10T10:24:54.411Z,0.90
2022-09-10T10:27:32.695Z,0.85
2022-09-10T10:30:07.248Z,0.98
2022-09-10T10:32:42.715Z,0.80
2022-09-10T10:35:26.054Z,0.82
2022-09-10T10:38:30.742Z,0.70
2022-09-10T10:41:31.643Z,1.08
2022-09-10T10:44:18.813Z,1.00
2022-09-10T10:46:55.817Z,0.70
2022-09-10T10:49:32.934Z,0.90
2022-09-10T10:52:10.146Z,0.60
2022-09-10T10:54:55.565Z,0.70
2022-09-10T10:57:31.634Z,0.70
2022-09-10T11:00:07.361Z,0.52
2022-09-10T11:02:44.311Z,0.90
2022-09-10T11:05:27.828Z,0.60
2022-09-10T11:07:56.408Z,0.73
2022-09-10T11:10:30.436Z,1.00
2022-09-10T11:13:09.256Z,0.75
2022-09-10T11:15:46.949Z,0.80
2022-09-10T11:18:22.923Z,0.80
2022-09-10T11:20:58.887Z,1.00
2022-09-10T11:23:31.184Z,0.80
2022-09-10T11:26:04.948Z,1.15
2022-09-10T11:28:37.366Z,0.90
2022-09-10T11:31:13.790Z,1.10
2022-09-10T11:33:51.448Z,1.05
2022-09-10T11:36:25.811Z,0.80
2022-09-10T11:39:06.870Z,0.98
2022-09-10T11:41:36.808Z,0.90
2022-09-10T11:44:17.928Z,0.60
2022-09-10T11:46:56.230Z,0.77
2022-09-10T11:49:37.412Z,0.90
2022-09-10T11:52:05.463Z,0.80
2022-09-10T11:54:36.381Z,0.98
2022-09-10T11:57:10.423Z,0.85
2022-09-10T12:00:00.279Z,0.95
2022-09-10T12:02:58.661Z,0.85
2022-09-10T12:05:35.959Z,1.00
2022-09-10T12:08:11.505Z,0.80
2022-09-10T12:10:47.170Z,0.80
2022-09-10T12:13:16.121Z,1.00
2022-09-10T12:15:52.623Z,1.13
2022-09-10T12:18:25.540Z,0.93
2022-09-10T12:20:56.903Z,1.80
2022-09-10T12:23:28.466Z,1.05
2022-09-10T12:26:01.673Z,1.10
2022-09-10T12:29:03.957Z,1.23
2022-09-10T12:32:04.963Z,1.30
2022-09-10T12:34:34.312Z,1.40
2022-09-10T12:37:24.219Z,1.00
2022-09-10T12:40:34.047Z,0.93
2022-09-10T12:43:39.863Z,0.93
2022-09-10T12:46:18.706Z,1.00
2022-09-10T12:48:48.569Z,0.90
2022-09-10T12:51:32.305Z,1.00
2022-09-10T12:54:12.040Z,0.90
2022-09-10T12:56:59.480Z,0.70
2022-09-10T12:59:56.904Z,0.80
2022-09-10T13:02:31.807Z,0.80
2022-09-10T13:05:03.097Z,0.90
2022-09-10T13:07:40.253Z,0.88
2022-09-10T13:10:22.043Z,1.00
2022-09-10T13:12:52.979Z,1.10
2022-09-10T13:15:23.950Z,0.70
2022-09-10T13:18:27.034Z,0.90
2022-09-10T13:20:55.150Z,0.90
2022-09-10T13:23:47.527Z,0.75
2022-09-10T13:26:48.401Z,0.80
2022-09-10T13:29:32.439Z,1.00
2022-09-10T13:32:05.339Z,0.90
2022-09-10T13:35:06.135Z,0.70
2022-09-10T13:37:53.706Z,1.08
2022-09-10T13:40:43.248Z,0.80
2022-09-10T13:43:25.697Z,0.90
2022-09-10T13:45:59.477Z,1.00
2022-09-10T13:48:30.668Z,0.90
2022-09-10T13:51:15.585Z,0.90
2022-09-10T13:53:46.825Z,1.00
2022-09-10T13:56:20.804Z,0.98
2022-09-10T13:58:51.699Z,1.10
2022-09-10T14:01:19.695Z,1.10
2022-09-10T14:03:47.526Z,0.85
2022-09-10T14:06:21.585Z,1.10
2022-09-10T14:08:54.207Z,1.00
2022-09-10T14:11:25.794Z,2.30
2022-09-10T14:13:58.138Z,1.65
2022-09-10T14:16:31.756Z,1.60
2022-09-10T14:19:02.766Z,1.42
2022-09-10T14:21:31.446Z,1.52
2022-09-10T14:24:00.194Z,1.45
2022-09-10T14:26:33.723Z,1.60
2022-09-10T14:29:03.878Z,1.70
2022-09-10T14:31:35.889Z,1.85
2022-09-10T14:34:31.442Z,3.50
2022-09-10T14:37:00.127Z,2.50
2022-09-10T14:39:28.295Z,1.52
2022-09-10T14:42:25.060Z,1.90
2022-09-10T14:44:52.911Z,1.58
2022-09-10T14:47:32.018Z,1.75
2022-09-10T14:50:27.132Z,4.93
2022-09-10T14:52:55.651Z,4.65
2022-09-10T14:55:25.224Z,3.10
2022-09-10T14:57:55.437Z,2.75
2022-09-10T15:00:23.683Z,2.88
2022-09-10T15:02:53.770Z,2.42
2022-09-10T15:05:21.801Z,2.65
2022-09-10T15:07:50.260Z,2.25
2022-09-10T15:10:18.618Z,2.60
2022-09-10T15:12:49.868Z,2.42
2022-09-10T15:15:19.495Z,2.80
2022-09-10T15:17:48.041Z,2.50
2022-09-10T15:20:17.086Z,2.70
2022-09-10T15:22:45.908Z,2.25
2022-09-10T15:25:28.610Z,2.50
2022-09-10T15:27:56.477Z,3.33
2022-09-10T15:30:26.345Z,2.83
2022-09-10T15:32:54.625Z,2.65
2022-09-10T15:35:23.058Z,2.60
2022-09-10T15:37:51.187Z,2.50
2022-09-10T15:40:19.019Z,2.65
2022-09-10T15:42:48.140Z,2.42
2022-09-10T15:45:16.176Z,2.17
2022-09-10T15:47:45.959Z,2.40
2022-09-10T15:50:15.799Z,2.60
2022-09-10T15:52:44.820Z,3.70
2022-09-10T15:55:13.586Z,3.00
2022-09-10T15:57:41.443Z,4.13
2022-09-10T16:00:12.282Z,4.70
2022-09-10T16:02:40.133Z,5.05
2022-09-10T16:05:10.200Z,5.00
2022-09-10T16:07:38.128Z,3.10
2022-09-10T16:10:07.077Z,3.17
2022-09-10T16:12:35.066Z,2.50
2022-09-10T16:15:02.892Z,2.50
2022-09-10T16:17:31.768Z,2.50
2022-09-10T16:19:59.985Z,2.35
2022-09-10T16:22:30.015Z,2.55
2022-09-10T16:24:57.808Z,2.63
2022-09-10T16:27:25.761Z,2.67
2022-09-10T16:29:53.724Z,2.53
2022-09-10T16:32:21.596Z,2.80
2022-09-10T16:34:49.407Z,2.58
2022-09-10T16:37:18.429Z,2.35
2022-09-10T16:39:47.605Z,2.47
2022-09-10T16:42:15.502Z,2.50
2022-09-10T16:44:43.655Z,2.63
2022-09-10T16:47:11.588Z,2.63
2022-09-10T16:49:39.377Z,2.90
2022-09-10T16:52:07.483Z,2.85
2022-09-10T16:54:37.287Z,3.20
2022-09-10T16:57:06.459Z,2.60
2022-09-10T16:59:35.078Z,2.55
2022-09-10T17:02:03.090Z,2.55
2022-09-10T17:04:34.548Z,2.10
2022-09-10T17:07:02.389Z,2.30
2022-09-10T17:09:30.208Z,2.10
2022-09-10T17:11:58.006Z,2.00
2022-09-10T17:14:27.248Z,2.40
2022-09-10T17:16:55.486Z,2.15
2022-09-10T17:19:26.197Z,2.20
2022-09-10T17:21:56.083Z,2.13
2022-09-10T17:24:25.472Z,2.10
2022-09-10T17:26:55.071Z,1.90
2022-09-10T17:29:24.374Z,2.47
2022-09-10T17:31:55.170Z,2.28
2022-09-10T17:34:24.388Z,2.05
2022-09-10T17:36:52.486Z,2.10
2022-09-10T17:39:20.387Z,2.10
2022-09-10T17:41:48.760Z,2.00
2022-09-10T17:44:17.351Z,1.90
2022-09-10T17:46:46.069Z,2.42
2022-09-10T17:49:16.175Z,2.20
2022-09-10T17:51:44.704Z,2.35
2022-09-10T17:54:13.361Z,2.03
2022-09-10T17:56:41.808Z,2.35
2022-09-10T17:59:12.615Z,2.15
2022-09-10T18:01:40.607Z,2.40
2022-09-10T18:04:12.506Z,2.35
2022-09-10T18:06:41.747Z,2.45
2022-09-10T18:09:11.152Z,2.53
2022-09-10T18:11:41.208Z,2.28
2022-09-10T18:14:13.017Z,2.17
2022-09-10T18:16:40.916Z,2.45
2022-09-10T18:19:14.275Z,2.50
2022-09-10T18:21:45.122Z,2.78
2022-09-10T18:24:14.575Z,2.60
2022-09-10T18:26:45.031Z,2.85
2022-09-10T18:29:14.869Z,3.00
2022-09-10T18:31:44.495Z,2.83
2022-09-10T18:34:17.536Z,3.00
2022-09-10T18:36:50.283Z,3.08
2022-09-10T18:39:18.117Z,2.90
2022-09-10T18:41:46.257Z,2.90
2022-09-10T18:44:17.018Z,2.85
2022-09-10T18:46:45.767Z,2.65
2022-09-10T18:49:19.022Z,2.78
2022-09-10T18:51:52.014Z,2.75
2022-09-10T18:54:20.516Z,3.20
2022-09-10T18:56:49.544Z,2.88
2022-09-10T18:59:20.083Z,2.90
2022-09-10T19:01:48.895Z,2.38
2022-09-10T19:04:18.970Z,1.70
2022-09-10T19:06:48.225Z,1.90
2022-09-10T19:09:18.801Z,1.63
2022-09-10T19:11:49.277Z,1.45
2022-09-10T19:14:19.698Z,1.50
2022-09-10T19:16:48.892Z,1.52
2022-09-10T19:19:19.271Z,1.50
2022-09-10T19:21:48.350Z,1.52
2022-09-10T19:24:25.343Z,1.35
2022-09-10T19:27:01.579Z,1.42
2022-09-10T19:29:29.762Z,1.75
2022-09-10T19:31:57.660Z,1.85
2022-09-10T19:34:27.843Z,1.80
2022-09-10T19:36:55.675Z,1.70
2022-09-10T19:39:24.960Z,2.08
2022-09-10T19:41:52.882Z,2.10
2022-09-10T19:44:20.858Z,2.38
2022-09-10T19:46:49.007Z,2.20
2022-09-10T19:49:16.856Z,2.10
2022-09-10T19:51:44.682Z,2.20
2022-09-10T19:54:13.798Z,2.17
2022-09-10T19:56:43.674Z,2.20
2022-09-10T19:59:11.674Z,2.30
2022-09-10T20:01:41.434Z,2.38
2022-09-10T20:04:11.606Z,2.50
2022-09-10T20:06:40.042Z,2.40
2022-09-10T20:09:09.929Z,2.53
2022-09-10T20:11:38.513Z,2.65
2022-09-10T20:14:09.928Z,2.85
2022-09-10T20:16:38.618Z,2.72
2022-09-10T20:19:07.799Z,3.13
2022-09-10T20:21:36.944Z,2.83
2022-09-10T20:24:08.079Z,2.53
2022-09-10T20:26:39.769Z,2.80
2022-09-10T20:29:12.260Z,2.78
2022-09-10T20:31:41.842Z,2.40
2022-09-10T20:34:12.630Z,2.70
2022-09-10T20:36:42.093Z,2.90
2022-09-10T20:39:11.168Z,2.72
2022-09-10T20:41:39.862Z,2.60
2022-09-10T20:44:12.767Z,2.42
2022-09-10T20:46:41.888Z,2.33
2022-09-10T20:49:12.146Z,2.40
2022-09-10T20:51:41.153Z,2.40
2022-09-10T20:54:11.409Z,2.40
2022-09-10T20:56:39.370Z,2.53
2022-09-10T20:59:07.311Z,2.55
2022-09-10T21:01:36.596Z,2.70
2022-09-10T21:04:04.757Z,2.38
2022-09-10T21:06:34.250Z,2.25
2022-09-10T21:09:02.468Z,2.60
2022-09-10T21:11:32.197Z,2.40
2022-09-10T21:14:02.802Z,2.60
2022-09-10T21:16:32.852Z,2.25
2022-09-10T21:19:03.455Z,2.17
2022-09-10T21:21:33.987Z,2.10
2022-09-10T21:24:03.604Z,2.42
2022-09-10T21:26:33.500Z,2.22
2022-09-10T21:29:03.564Z,2.00
2022-09-10T21:31:32.360Z,2.13
2022-09-10T21:34:03.469Z,2.08
2022-09-10T21:36:32.618Z,2.33
2022-09-10T21:39:02.605Z,2.00
2022-09-10T21:41:32.291Z,2.17
2022-09-10T21:44:01.006Z,2.20
2022-09-10T21:46:29.480Z,2.22
2022-09-10T21:48:57.547Z,1.92
2022-09-10T21:51:26.876Z,2.10
2022-09-10T21:53:56.216Z,2.20
2022-09-10T21:56:26.807Z,2.40
2022-09-10T21:58:56.574Z,2.20
